Time;durP1;ratioP1;P1;durP2;ratioP2;P2;SDS_P1;SDS_P2;PMS_P1;PMS_P2;Temp;Humidity;BMP_temperature;BMP_pressure;BME280_temperature;BME280_humidity;BME280_pressure;Samples;Min_cycle;Max_cycle;Signal;HPM_P1;HPM_P2
2022/10/27 00:02:05;;;;;;;;;;;;;;;;;;5153014;27;20466;-66
2022/10/27 00:04:31;;;;;;;;;;;;;;;;;;5152450;27;19959;-66
2022/10/27 00:06:57;;;;;;;;;;;;;;;;;;5152835;27;19907;-66
2022/10/27 00:09:22;;;;;;;;;;;;;;;;;;5152751;27;19959;-66
2022/10/27 00:11:48;;;;;;;;;;;;;;;;;;5152396;27;19912;-66
2022/10/27 00:16:44;;;;;;;;;;;;;;;;;;5071429;28;19912;-67
2022/10/27 00:19:10;;;;;;;;;;;;;;;;;;5070687;28;20003;-67
2022/10/27 00:21:36;;;;;;;;;;;;;;;;;;5071184;28;19933;-67
2022/10/27 00:24:02;;;;;;;;;;;;;;;;;;5071059;28;20280;-67
2022/10/27 00:26:28;;;;;;;;;;;;;;;;;;5069808;28;20401;-67
2022/10/27 00:28:54;;;;;;;;;;;;;;;;;;5070990;28;20280;-67
2022/10/27 00:31:20;;;;;;;;;;;;;;;;;;5069747;28;19905;-67
2022/10/27 00:37:53;;;;;;;;;;;;;;;;;;5112634;27;19916;-67
2022/10/27 00:40:19;;;;;;;;;;;;;;;;;;5111357;28;20348;-67
2022/10/27 00:42:45;;;;;;;;;;;;;;;;;;5111588;28;20003;-66
2022/10/27 00:45:11;;;;;;;;;;;;;;;;;;5111764;28;20372;-66
2022/10/27 00:47:37;;;;;;;;;;;;;;;;;;5111376;28;20271;-67
2022/10/27 00:50:03;;;;;;;;;;;;;;;;;;5111576;28;19957;-67
2022/10/27 00:55:02;;;;;;;;;;;;;;;;;;5152624;27;19916;-66
2022/10/27 00:57:28;;;;;;;;;;;;;;;;;;5152880;27;20010;-66
2022/10/27 00:59:54;;;;;;;;;;;;;;;;;;5152754;27;19939;-66
2022/10/27 01:02:20;;;;;;;;;;;;;;;;;;5152407;27;19911;-66
2022/10/27 01:06:19;;;;;;;;;;;;;;;;;;5111961;27;19916;-66
2022/10/27 01:08:45;;;;;;;;;;;;;;;;;;5111544;28;19983;-66
2022/10/27 01:12:02;;;;;;;;;;;;;;;;;;5132297;27;20112;-66
2022/10/27 01:14:28;;;;;;;;;;;;;;;;;;5131757;28;20569;-66
2022/10/27 01:16:54;;;;;;;;;;;;;;;;;;5132063;28;19969;-66
2022/10/27 01:19:20;;;;;;;;;;;;;;;;;;5132019;28;19908;-66
2022/10/27 01:23:22;;;;;;;;;;;;;;;;;;5111629;27;19919;-66
2022/10/27 01:25:48;;;;;;;;;;;;;;;;;;5111547;28;20010;-66
2022/10/27 01:28:14;;;;;;;;;;;;;;;;;;5110923;28;19908;-66
2022/10/27 01:30:40;;;;;;;;;;;;;;;;;;5111904;28;19908;-66
2022/10/27 01:33:06;;;;;;;;;;;;;;;;;;5111607;28;20003;-66
2022/10/27 01:35:32;;;;;;;;;;;;;;;;;;5111558;28;19908;-66
2022/10/27 01:37:58;;;;;;;;;;;;;;;;;;5111747;28;19912;-67
2022/10/27 01:40:24;;;;;;;;;;;;;;;;;;5110274;28;20049;-67
2022/10/27 01:42:50;;;;;;;;;;;;;;;;;;5109666;28;20385;-66
2022/10/27 01:45:16;;;;;;;;;;;;;;;;;;5111416;28;19960;-67
2022/10/27 01:47:42;;;;;;;;;;;;;;;;;;5111681;28;19908;-67
2022/10/27 01:50:08;;;;;;;;;;;;;;;;;;5110969;28;19908;-66
2022/10/27 01:52:34;;;;;;;;;;;;;;;;;;5111483;28;20448;-66
2022/10/27 01:55:00;;;;;;;;;;;;;;;;;;5111321;28;20261;-67
2022/10/27 01:57:26;;;;;;;;;;;;;;;;;;5110762;28;20284;-67
2022/10/27 01:59:51;;;;;;;;;;;;;;;;;;5111139;28;20372;-67
2022/10/27 02:02:17;;;;;;;;;;;;;;;;;;5110947;28;20040;-66
2022/10/27 02:04:43;;;;;;;;;;;;;;;;;;5111743;28;19908;-67
2022/10/27 02:07:09;;;;;;;;;;;;;;;;;;5111042;28;19957;-67
2022/10/27 02:09:35;;;;;;;;;;;;;;;;;;5109700;28;19994;-67
2022/10/27 02:12:01;;;;;;;;;;;;;;;;;;5110502;28;20366;-67
2022/10/27 02:14:27;;;;;;;;;;;;;;;;;;5111591;28;20360;-67
2022/10/27 02:16:53;;;;;;;;;;;;;;;;;;5110841;28;19908;-67
2022/10/27 02:19:19;;;;;;;;;;;;;;;;;;5110443;28;19919;-67
2022/10/27 02:21:45;;;;;;;;;;;;;;;;;;5110419;28;19927;-67
2022/10/27 02:24:11;;;;;;;;;;;;;;;;;;5109246;28;19908;-67
2022/10/27 02:26:37;;;;;;;;;;;;;;;;;;5110229;28;19914;-68
2022/10/27 02:29:03;;;;;;;;;;;;;;;;;;5110569;28;19908;-68
2022/10/27 02:31:29;;;;;;;;;;;;;;;;;;5110270;28;20378;-67
2022/10/27 02:33:55;;;;;;;;;;;;;;;;;;5100902;28;19915;-67
2022/10/27 02:36:21;;;;;;;;;;;;;;;;;;5095465;28;19944;-67
2022/10/27 02:38:47;;;;;;;;;;;;;;;;;;5095191;28;19954;-67
2022/10/27 02:41:13;;;;;;;;;;;;;;;;;;5095329;28;19935;-67
2022/10/27 02:43:39;;;;;;;;;;;;;;;;;;5096688;28;19916;-67
2022/10/27 02:46:04;;;;;;;;;;;;;;;;;;5096251;28;19908;-67
2022/10/27 02:48:31;;;;;;;;;;;;;;;;;;5096598;28;19931;-67
2022/10/27 02:50:56;;;;;;;;;;;;;;;;;;5095298;28;19952;-67
2022/10/27 02:53:22;;;;;;;;;;;;;;;;;;5096051;28;20089;-67
2022/10/27 02:55:48;;;;;;;;;;;;;;;;;;5096368;28;19912;-67
2022/10/27 02:58:14;;;;;;;;;;;;;;;;;;5096360;28;19915;-67
2022/10/27 03:00:40;;;;;;;;;;;;;;;;;;5094677;28;19909;-67
2022/10/27 03:03:06;;;;;;;;;;;;;;;;;;5096208;28;20295;-67
2022/10/27 03:05:32;;;;;;;;;;;;;;;;;;5096615;28;19908;-67
2022/10/27 03:07:58;;;;;;;;;;;;;;;;;;5095830;28;20284;-67
2022/10/27 03:10:24;;;;;;;;;;;;;;;;;;5096248;28;20287;-67
2022/10/27 03:12:50;;;;;;;;;;;;;;;;;;5094813;28;19908;-67
2022/10/27 03:15:16;;;;;;;;;;;;;;;;;;5095749;28;19908;-67
2022/10/27 03:17:42;;;;;;;;;;;;;;;;;;5096063;28;19908;-67
2022/10/27 03:20:08;;;;;;;;;;;;;;;;;;5094744;28;19916;-67
2022/10/27 03:22:34;;;;;;;;;;;;;;;;;;5095412;28;19920;-67
2022/10/27 03:25:00;;;;;;;;;;;;;;;;;;5095896;28;20006;-67
2022/10/27 03:27:26;;;;;;;;;;;;;;;;;;5095882;28;19915;-67
2022/10/27 03:29:52;;;;;;;;;;;;;;;;;;5094076;28;19946;-67
2022/10/27 03:32:18;;;;;;;;;;;;;;;;;;5096077;28;19970;-67
2022/10/27 03:34:44;;;;;;;;;;;;;;;;;;5094392;28;19908;-67
2022/10/27 03:37:10;;;;;;;;;;;;;;;;;;5095956;28;19961;-67
2022/10/27 03:39:36;;;;;;;;;;;;;;;;;;5095643;28;19916;-67
2022/10/27 03:42:02;;;;;;;;;;;;;;;;;;5093899;28;20288;-67
2022/10/27 03:44:28;;;;;;;;;;;;;;;;;;5094968;28;20368;-67
2022/10/27 03:46:54;;;;;;;;;;;;;;;;;;5095162;28;20269;-67
2022/10/27 03:49:20;;;;;;;;;;;;;;;;;;5095074;28;19908;-67
2022/10/27 03:51:46;;;;;;;;;;;;;;;;;;5094213;28;19915;-67
2022/10/27 03:54:12;;;;;;;;;;;;;;;;;;5095310;28;19991;-67
2022/10/27 03:56:38;;;;;;;;;;;;;;;;;;5094952;28;20006;-67
2022/10/27 03:59:04;;;;;;;;;;;;;;;;;;5095272;28;19908;-67
2022/10/27 04:01:30;;;;;;;;;;;;;;;;;;5095033;28;19951;-66
2022/10/27 04:03:55;;;;;;;;;;;;;;;;;;5094957;28;19908;-67
2022/10/27 04:06:21;;;;;;;;;;;;;;;;;;5093791;28;20436;-67
2022/10/27 04:08:47;;;;;;;;;;;;;;;;;;5095552;28;20304;-67
2022/10/27 04:11:13;;;;;;;;;;;;;;;;;;5091879;28;19908;-67
2022/10/27 04:13:39;;;;;;;;;;;;;;;;;;5094865;28;20001;-67
2022/10/27 04:16:05;;;;;;;;;;;;;;;;;;5094848;28;19912;-67
2022/10/27 04:18:31;;;;;;;;;;;;;;;;;;5094508;28;20001;-67
2022/10/27 04:20:57;;;;;;;;;;;;;;;;;;5094623;28;20395;-67
2022/10/27 04:23:23;;;;;;;;;;;;;;;;;;5094765;28;19987;-66
2022/10/27 04:25:49;;;;;;;;;;;;;;;;;;5091354;28;19912;-67
2022/10/27 04:28:15;;;;;;;;;;;;;;;;;;5092600;28;19915;-67
2022/10/27 04:30:41;;;;;;;;;;;;;;;;;;5091516;28;19909;-68
2022/10/27 04:33:07;;;;;;;;;;;;;;;;;;5092108;28;19914;-67
2022/10/27 04:35:33;;;;;;;;;;;;;;;;;;5092417;28;19912;-67
2022/10/27 04:37:59;;;;;;;;;;;;;;;;;;5092489;28;19970;-66
2022/10/27 04:40:25;;;;;;;;;;;;;;;;;;5092963;28;19908;-67
2022/10/27 04:42:51;;;;;;;;;;;;;;;;;;5094335;28;19920;-67
2022/10/27 04:45:17;;;;;;;;;;;;;;;;;;5094250;28;20387;-66
2022/10/27 04:47:43;;;;;;;;;;;;;;;;;;5094362;28;20265;-67
2022/10/27 04:50:09;;;;;;;;;;;;;;;;;;5094217;28;19990;-67
2022/10/27 04:52:35;;;;;;;;;;;;;;;;;;5093984;28;19966;-67
2022/10/27 04:55:01;;;;;;;;;;;;;;;;;;5094296;28;19915;-67
2022/10/27 04:57:27;;;;;;;;;;;;;;;;;;5093924;28;19943;-67
2022/10/27 04:59:53;;;;;;;;;;;;;;;;;;5093933;28;20000;-67
2022/10/27 05:02:19;;;;;;;;;;;;;;;;;;5094072;28;19920;-66
2022/10/27 05:04:45;;;;;;;;;;;;;;;;;;5092782;28;19914;-66
2022/10/27 05:07:11;;;;;;;;;;;;;;;;;;5091690;28;19953;-66
2022/10/27 05:09:37;;;;;;;;;;;;;;;;;;5093610;28;19912;-66
2022/10/27 05:12:03;;;;;;;;;;;;;;;;;;5092974;28;19946;-66
2022/10/27 05:14:29;;;;;;;;;;;;;;;;;;5090265;28;19916;-66
2022/10/27 05:16:55;;;;;;;;;;;;;;;;;;5084513;28;20019;-65
2022/10/27 05:19:21;;;;;;;;;;;;;;;;;;5091002;28;19915;-66
2022/10/27 05:21:47;;;;;;;;;;;;;;;;;;5101884;28;20406;-66
2022/10/27 05:24:13;;;;;;;;;;;;;;;;;;5087319;28;20320;-66
2022/10/27 05:26:39;;;;;;;;;;;;;;;;;;5078482;28;19927;-65
2022/10/27 05:29:05;;;;;;;;;;;;;;;;;;5091625;28;20335;-65
2022/10/27 05:31:31;;;;;;;;;;;;;;;;;;5088977;28;19916;-66
2022/10/27 05:33:58;;;;;;;;;;;;;;;;;;5086717;28;19908;-66
2022/10/27 05:36:24;;;;;;;;;;;;;;;;;;5079023;28;20392;-67
2022/10/27 05:38:50;;;;;;;;;;;;;;;;;;5080086;28;19966;-67
2022/10/27 05:41:17;;;;;;;;;;;;;;;;;;5085308;28;20364;-66
2022/10/27 05:43:43;;;;;;;;;;;;;;;;;;5087112;28;20481;-67
2022/10/27 05:46:09;;;;;;;;;;;;;;;;;;5088855;28;20451;-68
2022/10/27 05:48:35;;;;;;;;;;;;;;;;;;5088578;28;19919;-66
2022/10/27 05:51:01;;;;;;;;;;;;;;;;;;5109569;28;19956;-66
2022/10/27 05:53:27;;;;;;;;;;;;;;;;;;5086346;28;19912;-66
2022/10/27 05:55:53;;;;;;;;;;;;;;;;;;5077387;28;19912;-66
2022/10/27 05:58:19;;;;;;;;;;;;;;;;;;5084542;28;21125;-65
2022/10/27 06:00:45;;;;;;;;;;;;;;;;;;5084633;28;20031;-66
2022/10/27 06:03:11;;;;;;;;;;;;;;;;;;5082570;28;20403;-66
2022/10/27 06:05:37;;;;;;;;;;;;;;;;;;5087327;28;19952;-65
2022/10/27 06:08:03;;;;;;;;;;;;;;;;;;5090680;28;19909;-65
2022/10/27 06:10:29;;;;;;;;;;;;;;;;;;5093685;28;19912;-66
2022/10/27 06:12:55;;;;;;;;;;;;;;;;;;5076391;28;20909;-65
2022/10/27 06:15:21;;;;;;;;;;;;;;;;;;5092039;28;20759;-66
2022/10/27 06:17:47;;;;;;;;;;;;;;;;;;5094684;28;20419;-66
2022/10/27 06:20:13;;;;;;;;;;;;;;;;;;5094578;28;19973;-66
2022/10/27 06:22:39;;;;;;;;;;;;;;;;;;5095410;28;19930;-65
2022/10/27 06:25:05;;;;;;;;;;;;;;;;;;5095308;28;19908;-66
2022/10/27 06:27:31;;;;;;;;;;;;;;;;;;5094940;28;19912;-65
2022/10/27 06:29:57;;;;;;;;;;;;;;;;;;5083532;28;19916;-65
2022/10/27 06:32:23;;;;;;;;;;;;;;;;;;5049945;28;20007;-66
2022/10/27 06:34:49;;;;;;;;;;;;;;;;;;5073169;28;19916;-66
2022/10/27 06:37:15;;;;;;;;;;;;;;;;;;5074069;28;19912;-65
2022/10/27 06:39:41;;;;;;;;;;;;;;;;;;5069599;28;19916;-67
2022/10/27 06:42:07;;;;;;;;;;;;;;;;;;5061872;28;20610;-67
2022/10/27 06:44:33;;;;;;;;;;;;;;;;;;5074532;28;19992;-66
2022/10/27 06:46:59;;;;;;;;;;;;;;;;;;5062318;28;19920;-66
2022/10/27 06:49:25;;;;;;;;;;;;;;;;;;5074411;28;20358;-66
2022/10/27 06:51:53;;;;;;;;;;;;;;;;;;5077012;28;19939;-66
2022/10/27 06:54:19;;;;;;;;;;;;;;;;;;5075516;28;19917;-66
2022/10/27 06:59:18;;;;;;;;;;;;;;;;;;5129242;27;19918;-65
2022/10/27 07:03:11;;;;;;;;;;;;;;;;;;5097224;27;19916;-67
2022/10/27 07:07:11;;;;;;;;;;;;;;;;;;5079264;27;19917;-64
2022/10/27 07:09:39;;;;;;;;;;;;;;;;;;5067618;28;20383;-68
2022/10/27 07:12:04;;;;;;;;;;;;;;;;;;5068377;28;19908;-65
2022/10/27 07:14:30;;;;;;;;;;;;;;;;;;5066103;28;20089;-65
2022/10/27 07:16:56;;;;;;;;;;;;;;;;;;5065418;28;19913;-66
2022/10/27 07:19:22;;;;;;;;;;;;;;;;;;5067009;28;19908;-66
2022/10/27 07:21:48;;;;;;;;;;;;;;;;;;5064227;28;19951;-66
2022/10/27 07:24:14;;;;;;;;;;;;;;;;;;5064637;28;19916;-66
2022/10/27 07:26:40;;;;;;;;;;;;;;;;;;5059375;28;19916;-65
2022/10/27 07:29:06;;;;;;;;;;;;;;;;;;5048170;28;19942;-67
2022/10/27 07:31:32;;;;;;;;;;;;;;;;;;5061554;28;20023;-67
2022/10/27 07:34:11;;;;;;;;;;;;;;;;;;5073339;27;19920;-65
2022/10/27 07:37:32;;;;;;;;;;;;;;;;;;5074977;27;19920;-66
2022/10/27 07:39:59;;;;;;;;;;;;;;;;;;5065395;28;19932;-65
2022/10/27 07:42:25;;;;;;;;;;;;;;;;;;5061970;28;19913;-64
2022/10/27 07:44:50;;;;;;;;;;;;;;;;;;5056230;28;19916;-65
2022/10/27 07:48:38;;;;;;;;;;;;;;;;;;5066116;27;19943;-68
2022/10/27 07:53:01;;;;;;;;;;;;;;;;;;5108174;27;19922;-69
2022/10/27 07:55:27;;;;;;;;;;;;;;;;;;5108443;28;19912;-67
2022/10/27 07:57:53;;;;;;;;;;;;;;;;;;5105195;28;20298;-66
2022/10/27 08:02:03;;;;;;;;;;;;;;;;;;5079466;27;20377;-66
2022/10/27 08:04:29;;;;;;;;;;;;;;;;;;5085269;28;19926;-66
2022/10/27 08:06:55;;;;;;;;;;;;;;;;;;5086502;28;20384;-68
2022/10/27 08:09:21;;;;;;;;;;;;;;;;;;5087817;28;20292;-66
2022/10/27 08:11:47;;;;;;;;;;;;;;;;;;5073005;28;19927;-66
2022/10/27 08:14:13;;;;;;;;;;;;;;;;;;5066071;28;19908;-66
2022/10/27 08:16:39;;;;;;;;;;;;;;;;;;5069252;28;20289;-66
2022/10/27 08:19:05;;;;;;;;;;;;;;;;;;5069827;28;19958;-65
2022/10/27 08:21:31;;;;;;;;;;;;;;;;;;5065502;28;19928;-65
2022/10/27 08:24:53;;;;;;;;;;;;;;;;;;5105947;27;19916;-65
2022/10/27 08:27:19;;;;;;;;;;;;;;;;;;5105284;28;20888;-66
2022/10/27 08:29:45;;;;;;;;;;;;;;;;;;5104901;28;19953;-65
2022/10/27 08:32:11;;;;;;;;;;;;;;;;;;5109147;28;19912;-65
2022/10/27 08:37:59;;;;;;;;;;;;;;;;;;5088205;27;19916;-64
2022/10/27 08:42:14;;;;;;;;;;;;;;;;;;5090279;27;19916;-65
2022/10/27 08:45:23;;;;;;;;;;;;;;;;;;5107036;27;19916;-65
2022/10/27 08:47:49;;;;;;;;;;;;;;;;;;5096371;28;20003;-65
2022/10/27 08:50:15;;;;;;;;;;;;;;;;;;5093438;28;19917;-65
2022/10/27 08:52:41;;;;;;;;;;;;;;;;;;5101108;28;19912;-66
2022/10/27 09:00:17;;;;;;;;;;;;;;;;;;5109605;27;19923;-66
2022/10/27 09:02:43;;;;;;;;;;;;;;;;;;5110154;28;19912;-65
2022/10/27 09:05:09;;;;;;;;;;;;;;;;;;5108986;28;19961;-65
2022/10/27 09:07:34;;;;;;;;;;;;;;;;;;5109983;28;19908;-66
2022/10/27 09:10:00;;;;;;;;;;;;;;;;;;5100495;28;19908;-66
2022/10/27 09:12:26;;;;;;;;;;;;;;;;;;5093474;28;20349;-66
2022/10/27 09:16:36;;;;;;;;;;;;;;;;;;5090576;27;20280;-66
2022/10/27 09:19:50;;;;;;;;;;;;;;;;;;5137646;27;20399;-68
2022/10/27 09:23:33;;;;;;;;;;;;;;;;;;5107716;27;19922;-66
2022/10/27 09:25:59;;;;;;;;;;;;;;;;;;5106130;28;19912;-67
2022/10/27 09:28:25;;;;;;;;;;;;;;;;;;5105375;28;20271;-67
2022/10/27 09:30:51;;;;;;;;;;;;;;;;;;5107162;28;19914;-67
2022/10/27 09:33:17;;;;;;;;;;;;;;;;;;5105538;28;20291;-68
2022/10/27 09:37:41;;;;;;;;;;;;;;;;;;5148827;27;20290;-69
2022/10/27 09:40:07;;;;;;;;;;;;;;;;;;5149744;27;19998;-67
2022/10/27 09:42:33;;;;;;;;;;;;;;;;;;5131608;27;20007;-67
2022/10/27 09:46:20;;;;;;;;;;;;;;;;;;5150183;27;20002;-66
2022/10/27 09:50:55;;;;;;;;;;;;;;;;;;5143038;27;19912;-67
2022/10/27 09:53:21;;;;;;;;;;;;;;;;;;5125152;28;20373;-67
2022/10/27 09:55:47;;;;;;;;;;;;;;;;;;5095539;28;20581;-66
2022/10/27 09:58:13;;;;;;;;;;;;;;;;;;5108861;28;20011;-67
2022/10/27 10:00:39;;;;;;;;;;;;;;;;;;5090108;28;20003;-67
2022/10/27 10:03:05;;;;;;;;;;;;;;;;;;5089723;28;19915;-67
2022/10/27 10:05:31;;;;;;;;;;;;;;;;;;5108308;28;19934;-68
2022/10/27 10:07:57;;;;;;;;;;;;;;;;;;5088677;28;20803;-67
2022/10/27 10:10:23;;;;;;;;;;;;;;;;;;5098422;28;20038;-67
2022/10/27 10:12:49;;;;;;;;;;;;;;;;;;5112082;28;19908;-68
2022/10/27 10:15:15;;;;;;;;;;;;;;;;;;5113961;28;20350;-69
2022/10/27 10:17:59;;;;;;;;;;;;;;;;;;5109531;27;19916;-67
2022/10/27 10:20:25;;;;;;;;;;;;;;;;;;5108379;28;20396;-66
2022/10/27 10:22:51;;;;;;;;;;;;;;;;;;5109444;28;19915;-68
2022/10/27 10:25:17;;;;;;;;;;;;;;;;;;5109163;28;19959;-68
2022/10/27 10:27:43;;;;;;;;;;;;;;;;;;5110414;28;19912;-67
2022/10/27 10:30:09;;;;;;;;;;;;;;;;;;5109094;28;19908;-66
2022/10/27 10:32:35;;;;;;;;;;;;;;;;;;5110503;28;19908;-66
2022/10/27 10:35:01;;;;;;;;;;;;;;;;;;5108211;28;20360;-67
2022/10/27 10:37:27;;;;;;;;;;;;;;;;;;5110008;28;20362;-68
2022/10/27 10:39:53;;;;;;;;;;;;;;;;;;5110463;28;20049;-67
2022/10/27 10:42:19;;;;;;;;;;;;;;;;;;5108737;28;19908;-68
2022/10/27 10:44:45;;;;;;;;;;;;;;;;;;5110158;28;19919;-68
2022/10/27 10:47:11;;;;;;;;;;;;;;;;;;5110373;28;19915;-66
2022/10/27 10:49:37;;;;;;;;;;;;;;;;;;5107316;28;19920;-65
2022/10/27 10:52:03;;;;;;;;;;;;;;;;;;5097051;28;19919;-67
2022/10/27 10:56:35;;;;;;;;;;;;;;;;;;5067249;27;20316;-66
2022/10/27 10:59:01;;;;;;;;;;;;;;;;;;5068240;28;19912;-66
2022/10/27 11:01:27;;;;;;;;;;;;;;;;;;5070002;28;19913;-69
2022/10/27 11:03:53;;;;;;;;;;;;;;;;;;5070000;28;20356;-68
2022/10/27 11:06:19;;;;;;;;;;;;;;;;;;5067363;28;19917;-68
2022/10/27 11:08:45;;;;;;;;;;;;;;;;;;5068687;28;19912;-66
2022/10/27 11:11:11;;;;;;;;;;;;;;;;;;5070042;28;20008;-66
2022/10/27 11:13:37;;;;;;;;;;;;;;;;;;5069630;28;19920;-66
2022/10/27 11:16:03;;;;;;;;;;;;;;;;;;5068734;28;19917;-66
2022/10/27 11:18:29;;;;;;;;;;;;;;;;;;5068534;28;20054;-66
2022/10/27 11:20:55;;;;;;;;;;;;;;;;;;5069407;28;19912;-66
2022/10/27 11:23:22;;;;;;;;;;;;;;;;;;5069602;28;19913;-66
2022/10/27 11:25:48;;;;;;;;;;;;;;;;;;5069560;28;19950;-65
2022/10/27 11:28:15;;;;;;;;;;;;;;;;;;5067821;28;19913;-68
2022/10/27 11:30:42;;;;;;;;;;;;;;;;;;5067357;28;19919;-67
2022/10/27 11:33:08;;;;;;;;;;;;;;;;;;5064348;28;20390;-68
2022/10/27 11:35:34;;;;;;;;;;;;;;;;;;5067183;28;20027;-67
2022/10/27 11:38:00;;;;;;;;;;;;;;;;;;5067609;28;19999;-67
2022/10/27 11:40:26;;;;;;;;;;;;;;;;;;5067010;28;19908;-68
2022/10/27 11:42:52;;;;;;;;;;;;;;;;;;5067337;28;19922;-67
2022/10/27 11:45:18;;;;;;;;;;;;;;;;;;5066961;28;19913;-67
2022/10/27 11:47:44;;;;;;;;;;;;;;;;;;5065237;28;19920;-67
2022/10/27 11:50:10;;;;;;;;;;;;;;;;;;5066553;28;20365;-68
2022/10/27 11:52:38;;;;;;;;;;;;;;;;;;5067520;28;20388;-68
2022/10/27 11:55:04;;;;;;;;;;;;;;;;;;5067135;28;19921;-67
2022/10/27 11:57:30;;;;;;;;;;;;;;;;;;5068310;28;20004;-67
2022/10/27 11:59:56;;;;;;;;;;;;;;;;;;5069469;28;19909;-67
2022/10/27 12:02:22;;;;;;;;;;;;;;;;;;5067621;28;20364;-68
2022/10/27 12:04:48;;;;;;;;;;;;;;;;;;5066997;28;19916;-68
2022/10/27 12:07:14;;;;;;;;;;;;;;;;;;5058123;28;19913;-67
2022/10/27 12:09:40;;;;;;;;;;;;;;;;;;5055358;28;20018;-67
2022/10/27 12:12:07;;;;;;;;;;;;;;;;;;5055148;28;19913;-70
2022/10/27 12:14:33;;;;;;;;;;;;;;;;;;5054057;28;20011;-66
2022/10/27 12:17:00;;;;;;;;;;;;;;;;;;5053863;28;20395;-69
2022/10/27 12:19:25;;;;;;;;;;;;;;;;;;5054154;28;20385;-67
2022/10/27 12:21:51;;;;;;;;;;;;;;;;;;5054855;28;19913;-66
2022/10/27 12:24:17;;;;;;;;;;;;;;;;;;5052765;28;20345;-66
2022/10/27 12:26:43;;;;;;;;;;;;;;;;;;5043516;28;19920;-66
2022/10/27 12:29:09;;;;;;;;;;;;;;;;;;5054208;28;19917;-69
2022/10/27 12:31:35;;;;;;;;;;;;;;;;;;5052570;28;19916;-66
2022/10/27 12:34:01;;;;;;;;;;;;;;;;;;5054278;28;19909;-67
2022/10/27 12:36:28;;;;;;;;;;;;;;;;;;5054444;28;19917;-68
2022/10/27 12:38:54;;;;;;;;;;;;;;;;;;5053023;28;19955;-69
2022/10/27 12:41:20;;;;;;;;;;;;;;;;;;5053327;28;19909;-69
2022/10/27 12:43:46;;;;;;;;;;;;;;;;;;5051187;28;19913;-68
2022/10/27 12:46:12;;;;;;;;;;;;;;;;;;5053847;28;19916;-68
2022/10/27 12:48:38;;;;;;;;;;;;;;;;;;5053118;28;19909;-69
2022/10/27 12:51:04;;;;;;;;;;;;;;;;;;5053596;28;19909;-68
2022/10/27 12:53:30;;;;;;;;;;;;;;;;;;5053531;28;19948;-68
2022/10/27 12:55:56;;;;;;;;;;;;;;;;;;5065924;28;19921;-68
2022/10/27 12:58:21;;;;;;;;;;;;;;;;;;5072711;28;19913;-69
2022/10/27 13:00:47;;;;;;;;;;;;;;;;;;5073361;28;20383;-69
2022/10/27 13:03:13;;;;;;;;;;;;;;;;;;5073444;28;20303;-69
2022/10/27 13:05:39;;;;;;;;;;;;;;;;;;5073074;28;20036;-68
2022/10/27 13:08:07;;;;;;;;;;;;;;;;;;5073283;28;19912;-67
2022/10/27 13:10:33;;;;;;;;;;;;;;;;;;5074986;28;20285;-68
2022/10/27 13:12:59;;;;;;;;;;;;;;;;;;5070877;28;19908;-68
2022/10/27 13:15:25;;;;;;;;;;;;;;;;;;5074978;28;20292;-68
2022/10/27 13:17:51;;;;;;;;;;;;;;;;;;5074477;28;20258;-68
2022/10/27 13:20:17;;;;;;;;;;;;;;;;;;5074514;28;19914;-68
2022/10/27 13:22:43;;;;;;;;;;;;;;;;;;5075428;28;20320;-68
2022/10/27 13:25:09;;;;;;;;;;;;;;;;;;5075066;28;20315;-68
2022/10/27 13:27:35;;;;;;;;;;;;;;;;;;5074565;28;19973;-68
2022/10/27 13:30:01;;;;;;;;;;;;;;;;;;5074942;28;19909;-68
2022/10/27 13:32:27;;;;;;;;;;;;;;;;;;5074830;28;19948;-68
2022/10/27 13:34:53;;;;;;;;;;;;;;;;;;5074464;28;19917;-68
2022/10/27 13:37:19;;;;;;;;;;;;;;;;;;5074858;28;19915;-68
2022/10/27 13:39:45;;;;;;;;;;;;;;;;;;5075021;28;19950;-68
2022/10/27 13:42:11;;;;;;;;;;;;;;;;;;5074937;28;19989;-68
2022/10/27 13:44:37;;;;;;;;;;;;;;;;;;5074620;28;19967;-68
2022/10/27 13:47:03;;;;;;;;;;;;;;;;;;5074139;28;19915;-68
2022/10/27 13:49:29;;;;;;;;;;;;;;;;;;5074704;28;19954;-68
2022/10/27 13:51:55;;;;;;;;;;;;;;;;;;5074586;28;20372;-68
2022/10/27 13:54:21;;;;;;;;;;;;;;;;;;5073722;28;19908;-68
2022/10/27 13:56:47;;;;;;;;;;;;;;;;;;5074085;28;19931;-68
2022/10/27 13:59:13;;;;;;;;;;;;;;;;;;5074266;28;19934;-68
2022/10/27 14:01:39;;;;;;;;;;;;;;;;;;5074038;28;19969;-68
2022/10/27 14:04:05;;;;;;;;;;;;;;;;;;5074360;28;19913;-68
2022/10/27 14:06:30;;;;;;;;;;;;;;;;;;5074817;28;19909;-69
2022/10/27 14:08:56;;;;;;;;;;;;;;;;;;5073916;28;20079;-68
2022/10/27 14:11:22;;;;;;;;;;;;;;;;;;5072895;28;19912;-68
2022/10/27 14:13:48;;;;;;;;;;;;;;;;;;5074497;28;19909;-68
2022/10/27 14:16:14;;;;;;;;;;;;;;;;;;5072313;28;20010;-68
2022/10/27 14:18:40;;;;;;;;;;;;;;;;;;5074113;28;20376;-68
2022/10/27 14:21:06;;;;;;;;;;;;;;;;;;5074133;28;20285;-68
2022/10/27 14:23:32;;;;;;;;;;;;;;;;;;5073677;28;19957;-68
2022/10/27 14:25:59;;;;;;;;;;;;;;;;;;5073974;28;19908;-68
2022/10/27 14:28:25;;;;;;;;;;;;;;;;;;5072825;28;19959;-68
2022/10/27 14:30:51;;;;;;;;;;;;;;;;;;5073367;28;19951;-68
2022/10/27 14:33:17;;;;;;;;;;;;;;;;;;5073951;28;19915;-68
2022/10/27 14:35:43;;;;;;;;;;;;;;;;;;5073822;28;19917;-68
2022/10/27 14:38:09;;;;;;;;;;;;;;;;;;5073464;28;19909;-68
2022/10/27 14:40:35;;;;;;;;;;;;;;;;;;5073879;28;19912;-69
2022/10/27 14:43:00;;;;;;;;;;;;;;;;;;5074162;28;19951;-68
2022/10/27 14:45:26;;;;;;;;;;;;;;;;;;5073424;28;19912;-68
2022/10/27 14:47:52;;;;;;;;;;;;;;;;;;5073690;28;19940;-68
2022/10/27 14:50:18;;;;;;;;;;;;;;;;;;5073499;28;19917;-68
2022/10/27 14:52:44;;;;;;;;;;;;;;;;;;5072373;28;20003;-69
2022/10/27 14:55:10;;;;;;;;;;;;;;;;;;5073438;28;20015;-69
2022/10/27 14:57:36;;;;;;;;;;;;;;;;;;5073366;28;19915;-68
2022/10/27 15:00:02;;;;;;;;;;;;;;;;;;5073677;28;19909;-69
2022/10/27 15:02:28;;;;;;;;;;;;;;;;;;5073681;28;20352;-68
2022/10/27 15:04:54;;;;;;;;;;;;;;;;;;5073080;28;20369;-69
2022/10/27 15:07:20;;;;;;;;;;;;;;;;;;5073555;28;19962;-69
2022/10/27 15:09:48;;;;;;;;;;;;;;;;;;5073975;28;20050;-69
2022/10/27 15:12:14;;;;;;;;;;;;;;;;;;5071826;28;19920;-69
2022/10/27 15:14:41;;;;;;;;;;;;;;;;;;5073624;28;20376;-70
2022/10/27 15:17:07;;;;;;;;;;;;;;;;;;5073578;28;19916;-69
2022/10/27 15:19:32;;;;;;;;;;;;;;;;;;5071759;28;20280;-69
2022/10/27 15:22:00;;;;;;;;;;;;;;;;;;5073448;28;19908;-69
2022/10/27 15:24:26;;;;;;;;;;;;;;;;;;5072072;28;19913;-68
2022/10/27 15:26:52;;;;;;;;;;;;;;;;;;5072976;28;19948;-69
2022/10/27 15:29:18;;;;;;;;;;;;;;;;;;5073438;28;19915;-69
2022/10/27 15:34:14;;;;;;;;;;;;;;;;;;5091127;27;19917;-69
2022/10/27 15:36:40;;;;;;;;;;;;;;;;;;5091256;28;20420;-68
2022/10/27 15:39:54;;;;;;;;;;;;;;;;;;5091456;27;19913;-70
2022/10/27 15:44:42;;;;;;;;;;;;;;;;;;5111770;27;19922;-68
2022/10/27 15:47:07;;;;;;;;;;;;;;;;;;5111569;28;19912;-69
2022/10/27 16:00:36;;;;;;;;;;;;;;;;;;5091155;28;19916;-68
2022/10/27 16:03:03;;;;;;;;;;;;;;;;;;5091259;28;20448;-68
2022/10/27 16:05:29;;;;;;;;;;;;;;;;;;5091204;28;19915;-69
2022/10/27 16:07:55;;;;;;;;;;;;;;;;;;5089504;28;19991;-68
2022/10/27 16:10:56;;;;;;;;;;;;;;;;;;5092035;27;20377;-68
2022/10/27 16:13:22;;;;;;;;;;;;;;;;;;5091320;28;20003;-68
2022/10/27 16:15:48;;;;;;;;;;;;;;;;;;5090774;28;20331;-68
2022/10/27 16:18:14;;;;;;;;;;;;;;;;;;5091176;28;19995;-68
2022/10/27 16:20:40;;;;;;;;;;;;;;;;;;5091212;28;19908;-68
2022/10/27 16:23:06;;;;;;;;;;;;;;;;;;5090764;28;19965;-68
2022/10/27 16:27:26;;;;;;;;;;;;;;;;;;5091379;27;19916;-68
2022/10/27 16:30:07;;;;;;;;;;;;;;;;;;5173771;27;20010;-69
2022/10/27 16:32:33;;;;;;;;;;;;;;;;;;5173808;27;20000;-68
2022/10/27 16:36:03;;;;;;;;;;;;;;;;;;5091253;27;19923;-68
2022/10/27 16:39:01;;;;;;;;;;;;;;;;;;5091767;27;19916;-67
2022/10/27 16:41:27;;;;;;;;;;;;;;;;;;5091365;28;20007;-67
2022/10/27 16:46:42;;;;;;;;;;;;;;;;;;5092127;28;19913;-67
2022/10/27 16:51:59;;;;;;;;;;;;;;;;;;5091157;27;20376;-68
2022/10/27 16:54:25;;;;;;;;;;;;;;;;;;5091377;28;20003;-67
2022/10/27 16:59:11;;;;;;;;;;;;;;;;;;5091962;27;19912;-69
2022/10/27 17:02:56;;;;;;;;;;;;;;;;;;5091644;27;20384;-68
2022/10/27 17:05:22;;;;;;;;;;;;;;;;;;5090985;28;19995;-67
2022/10/27 17:07:49;;;;;;;;;;;;;;;;;;5091403;28;19970;-68
2022/10/27 17:10:15;;;;;;;;;;;;;;;;;;5091298;28;19966;-68
2022/10/27 17:12:41;;;;;;;;;;;;;;;;;;5089508;28;20373;-68
2022/10/27 17:15:07;;;;;;;;;;;;;;;;;;5091012;28;19930;-67
2022/10/27 17:17:33;;;;;;;;;;;;;;;;;;5091264;28;19908;-67
2022/10/27 17:21:29;;;;;;;;;;;;;;;;;;5091331;27;19916;-67
2022/10/27 17:26:26;;;;;;;;;;;;;;;;;;5111328;27;19916;-66
2022/10/27 17:30:38;;;;;;;;;;;;;;;;;;5091314;28;19916;-67
2022/10/27 17:33:06;;;;;;;;;;;;;;;;;;5090980;28;20435;-68
2022/10/27 17:40:07;;;;;;;;;;;;;;;;;;5090988;28;20391;-66
2022/10/27 17:42:33;;;;;;;;;;;;;;;;;;5091273;28;20003;-66
2022/10/27 17:47:42;;;;;;;;;;;;;;;;;;5111601;27;20380;-67
2022/10/27 17:50:08;;;;;;;;;;;;;;;;;;5111803;28;19937;-67
2022/10/27 17:54:06;;;;;;;;;;;;;;;;;;5111023;27;19922;-66
2022/10/27 17:56:32;;;;;;;;;;;;;;;;;;5111694;28;20002;-66
2022/10/27 18:00:01;;;;;;;;;;;;;;;;;;5070581;28;20411;-66
2022/10/27 18:03:18;;;;;;;;;;;;;;;;;;5091538;28;19916;-66
2022/10/27 18:05:44;;;;;;;;;;;;;;;;;;5090026;28;20003;-66
2022/10/27 18:10:14;;;;;;;;;;;;;;;;;;5153144;27;20353;-69
2022/10/27 18:19:04;;;;;;;;;;;;;;;;;;5091425;27;19916;-66
2022/10/27 18:21:30;;;;;;;;;;;;;;;;;;5090954;28;20011;-67